sensor_id;sensor_type;location;lat;lon;timestamp;P1;durP1;ratioP1;P2;durP2;ratioP2
25153;SDS011;47555;51.038;6.280;2023-02-08T00:01:43;18.25;;;10.52;;
25153;SDS011;47555;51.038;6.280;2023-02-08T00:04:08;17.75;;;9.65;;
25153;SDS011;47555;51.038;6.280;2023-02-08T00:06:34;17.27;;;9.02;;
25153;SDS011;47555;51.038;6.280;2023-02-08T00:08:59;14.55;;;8.32;;
25153;SDS011;47555;51.038;6.280;2023-02-08T00:11:25;17.00;;;8.30;;
25153;SDS011;47555;51.038;6.280;2023-02-08T00:13:51;12.75;;;8.20;;
25153;SDS011;47555;51.038;6.280;2023-02-08T00:16:17;12.65;;;7.43;;
25153;SDS011;47555;51.038;6.280;2023-02-08T00:18:42;13.30;;;7.78;;
25153;SDS011;47555;51.038;6.280;2023-02-08T00:21:12;12.40;;;7.53;;
25153;SDS011;47555;51.038;6.280;2023-02-08T00:23:39;19.15;;;8.45;;
25153;SDS011;47555;51.038;6.280;2023-02-08T00:26:05;12.82;;;7.38;;
25153;SDS011;47555;51.038;6.280;2023-02-08T00:28:31;13.80;;;8.15;;
25153;SDS011;47555;51.038;6.280;2023-02-08T00:30:57;14.80;;;7.82;;
25153;SDS011;47555;51.038;6.280;2023-02-08T00:33:22;14.57;;;7.90;;
25153;SDS011;47555;51.038;6.280;2023-02-08T00:35:48;15.00;;;7.72;;
25153;SDS011;47555;51.038;6.280;2023-02-08T00:38:14;12.35;;;7.60;;
25153;SDS011;47555;51.038;6.280;2023-02-08T00:40:39;11.13;;;6.75;;
25153;SDS011;47555;51.038;6.280;2023-02-08T00:43:05;14.25;;;7.10;;
25153;SDS011;47555;51.038;6.280;2023-02-08T00:45:31;15.18;;;7.72;;
25153;SDS011;47555;51.038;6.280;2023-02-08T00:47:57;11.23;;;7.80;;
25153;SDS011;47555;51.038;6.280;2023-02-08T00:50:22;12.55;;;7.38;;
25153;SDS011;47555;51.038;6.280;2023-02-08T00:52:48;12.38;;;7.18;;
25153;SDS011;47555;51.038;6.280;2023-02-08T00:55:13;13.20;;;7.40;;
25153;SDS011;47555;51.038;6.280;2023-02-08T00:57:39;13.02;;;7.65;;
25153;SDS011;47555;51.038;6.280;2023-02-08T01:00:05;12.30;;;6.88;;
25153;SDS011;47555;51.038;6.280;2023-02-08T01:02:31;14.48;;;7.32;;
25153;SDS011;47555;51.038;6.280;2023-02-08T01:04:56;15.35;;;8.07;;
25153;SDS011;47555;51.038;6.280;2023-02-08T01:07:22;12.07;;;7.45;;
25153;SDS011;47555;51.038;6.280;2023-02-08T01:09:48;12.43;;;7.43;;
25153;SDS011;47555;51.038;6.280;2023-02-08T01:12:13;12.23;;;7.32;;
25153;SDS011;47555;51.038;6.280;2023-02-08T01:14:39;12.32;;;7.47;;
25153;SDS011;47555;51.038;6.280;2023-02-08T01:17:05;17.10;;;6.95;;
25153;SDS011;47555;51.038;6.280;2023-02-08T01:19:31;16.83;;;7.40;;
25153;SDS011;47555;51.038;6.280;2023-02-08T01:21:57;14.05;;;7.32;;
25153;SDS011;47555;51.038;6.280;2023-02-08T01:24:23;12.52;;;7.93;;
25153;SDS011;47555;51.038;6.280;2023-02-08T01:26:48;12.35;;;7.20;;
25153;SDS011;47555;51.038;6.280;2023-02-08T01:29:14;13.07;;;7.00;;
25153;SDS011;47555;51.038;6.280;2023-02-08T01:31:40;16.08;;;8.10;;
25153;SDS011;47555;51.038;6.280;2023-02-08T01:34:07;13.88;;;7.57;;
25153;SDS011;47555;51.038;6.280;2023-02-08T01:36:34;11.68;;;7.47;;
25153;SDS011;47555;51.038;6.280;2023-02-08T01:39:00;12.80;;;7.50;;
25153;SDS011;47555;51.038;6.280;2023-02-08T01:41:29;12.15;;;7.20;;
25153;SDS011;47555;51.038;6.280;2023-02-08T01:44:07;13.68;;;7.28;;
25153;SDS011;47555;51.038;6.280;2023-02-08T01:46:39;18.05;;;7.78;;
25153;SDS011;47555;51.038;6.280;2023-02-08T01:49:10;14.68;;;7.45;;
25153;SDS011;47555;51.038;6.280;2023-02-08T01:51:44;16.25;;;7.47;;
25153;SDS011;47555;51.038;6.280;2023-02-08T01:54:13;12.02;;;7.97;;
25153;SDS011;47555;51.038;6.280;2023-02-08T01:56:42;16.00;;;7.43;;
25153;SDS011;47555;51.038;6.280;2023-02-08T01:59:13;14.85;;;7.95;;
25153;SDS011;47555;51.038;6.280;2023-02-08T02:01:48;14.52;;;7.70;;
25153;SDS011;47555;51.038;6.280;2023-02-08T02:04:16;12.13;;;7.05;;
25153;SDS011;47555;51.038;6.280;2023-02-08T02:06:44;11.50;;;7.03;;
25153;SDS011;47555;51.038;6.280;2023-02-08T02:09:18;14.15;;;7.15;;
25153;SDS011;47555;51.038;6.280;2023-02-08T02:11:49;12.20;;;7.05;;
25153;SDS011;47555;51.038;6.280;2023-02-08T02:14:17;14.30;;;7.57;;
25153;SDS011;47555;51.038;6.280;2023-02-08T02:16:42;13.57;;;7.25;;
25153;SDS011;47555;51.038;6.280;2023-02-08T02:19:11;12.23;;;7.22;;
25153;SDS011;47555;51.038;6.280;2023-02-08T02:21:56;16.67;;;7.63;;
25153;SDS011;47555;51.038;6.280;2023-02-08T02:24:46;13.85;;;7.45;;
25153;SDS011;47555;51.038;6.280;2023-02-08T02:41:18;15.75;;;7.25;;
25153;SDS011;47555;51.038;6.280;2023-02-08T02:44:51;11.63;;;7.00;;
25153;SDS011;47555;51.038;6.280;2023-02-08T02:52:59;13.63;;;7.75;;
25153;SDS011;47555;51.038;6.280;2023-02-08T02:55:32;15.95;;;7.80;;
25153;SDS011;47555;51.038;6.280;2023-02-08T02:58:02;15.48;;;7.80;;
25153;SDS011;47555;51.038;6.280;2023-02-08T03:00:30;19.77;;;7.43;;
25153;SDS011;47555;51.038;6.280;2023-02-08T03:02:57;13.80;;;8.77;;
25153;SDS011;47555;51.038;6.280;2023-02-08T03:05:23;13.02;;;8.15;;
25153;SDS011;47555;51.038;6.280;2023-02-08T03:07:54;16.13;;;7.65;;
25153;SDS011;47555;51.038;6.280;2023-02-08T03:27:27;15.00;;;7.35;;
25153;SDS011;47555;51.038;6.280;2023-02-08T03:29:59;14.57;;;8.10;;
25153;SDS011;47555;51.038;6.280;2023-02-08T03:32:29;13.70;;;7.50;;
25153;SDS011;47555;51.038;6.280;2023-02-08T03:34:59;15.07;;;8.15;;
25153;SDS011;47555;51.038;6.280;2023-02-08T03:40:16;13.63;;;8.30;;
25153;SDS011;47555;51.038;6.280;2023-02-08T03:42:46;13.10;;;8.10;;
25153;SDS011;47555;51.038;6.280;2023-02-08T03:45:24;16.60;;;8.32;;
25153;SDS011;47555;51.038;6.280;2023-02-08T03:47:55;14.20;;;7.55;;
25153;SDS011;47555;51.038;6.280;2023-02-08T03:50:24;14.60;;;8.23;;
25153;SDS011;47555;51.038;6.280;2023-02-08T03:52:51;18.70;;;8.60;;
25153;SDS011;47555;51.038;6.280;2023-02-08T03:55:19;14.73;;;7.57;;
25153;SDS011;47555;51.038;6.280;2023-02-08T03:57:58;16.17;;;9.68;;
25153;SDS011;47555;51.038;6.280;2023-02-08T04:00:28;14.02;;;8.05;;
25153;SDS011;47555;51.038;6.280;2023-02-08T04:03:01;14.65;;;8.40;;
25153;SDS011;47555;51.038;6.280;2023-02-08T04:05:32;13.90;;;8.32;;
25153;SDS011;47555;51.038;6.280;2023-02-08T04:07:58;14.07;;;8.43;;
25153;SDS011;47555;51.038;6.280;2023-02-08T04:10:24;14.45;;;7.95;;
25153;SDS011;47555;51.038;6.280;2023-02-08T04:12:49;17.58;;;8.98;;
25153;SDS011;47555;51.038;6.280;2023-02-08T04:15:15;16.10;;;8.55;;
25153;SDS011;47555;51.038;6.280;2023-02-08T04:17:41;16.80;;;8.85;;
25153;SDS011;47555;51.038;6.280;2023-02-08T04:20:07;14.70;;;8.32;;
25153;SDS011;47555;51.038;6.280;2023-02-08T04:22:32;16.30;;;9.07;;
25153;SDS011;47555;51.038;6.280;2023-02-08T04:24:58;15.93;;;8.70;;
25153;SDS011;47555;51.038;6.280;2023-02-08T04:27:24;17.63;;;9.00;;
25153;SDS011;47555;51.038;6.280;2023-02-08T04:29:50;16.38;;;8.82;;
25153;SDS011;47555;51.038;6.280;2023-02-08T04:32:15;17.25;;;9.10;;
25153;SDS011;47555;51.038;6.280;2023-02-08T04:34:41;17.48;;;8.88;;
25153;SDS011;47555;51.038;6.280;2023-02-08T04:37:07;15.40;;;8.48;;
25153;SDS011;47555;51.038;6.280;2023-02-08T04:39:33;15.75;;;8.45;;
25153;SDS011;47555;51.038;6.280;2023-02-08T04:41:58;14.27;;;7.65;;
25153;SDS011;47555;51.038;6.280;2023-02-08T04:44:24;14.80;;;8.82;;
25153;SDS011;47555;51.038;6.280;2023-02-08T04:46:51;16.88;;;9.43;;
25153;SDS011;47555;51.038;6.280;2023-02-08T04:49:16;14.07;;;8.15;;
25153;SDS011;47555;51.038;6.280;2023-02-08T04:51:42;16.00;;;8.43;;
25153;SDS011;47555;51.038;6.280;2023-02-08T04:54:07;17.92;;;8.93;;
25153;SDS011;47555;51.038;6.280;2023-02-08T04:56:33;14.15;;;8.02;;
25153;SDS011;47555;51.038;6.280;2023-02-08T04:58:59;14.77;;;7.88;;
25153;SDS011;47555;51.038;6.280;2023-02-08T05:01:25;14.85;;;8.50;;
25153;SDS011;47555;51.038;6.280;2023-02-08T05:03:50;16.48;;;8.73;;
25153;SDS011;47555;51.038;6.280;2023-02-08T05:06:16;15.27;;;8.13;;
25153;SDS011;47555;51.038;6.280;2023-02-08T05:08:42;15.20;;;8.48;;
25153;SDS011;47555;51.038;6.280;2023-02-08T05:11:07;15.02;;;8.63;;
25153;SDS011;47555;51.038;6.280;2023-02-08T05:13:33;19.13;;;7.90;;
25153;SDS011;47555;51.038;6.280;2023-02-08T05:15:58;15.02;;;8.73;;
25153;SDS011;47555;51.038;6.280;2023-02-08T05:18:24;15.18;;;9.15;;
25153;SDS011;47555;51.038;6.280;2023-02-08T05:20:53;16.40;;;8.73;;
25153;SDS011;47555;51.038;6.280;2023-02-08T05:23:20;20.23;;;9.30;;
25153;SDS011;47555;51.038;6.280;2023-02-08T05:25:45;15.88;;;8.52;;
25153;SDS011;47555;51.038;6.280;2023-02-08T05:28:11;15.90;;;9.68;;
25153;SDS011;47555;51.038;6.280;2023-02-08T05:30:37;17.42;;;7.88;;
25153;SDS011;47555;51.038;6.280;2023-02-08T05:33:02;14.95;;;8.60;;
25153;SDS011;47555;51.038;6.280;2023-02-08T05:35:28;15.48;;;8.40;;
25153;SDS011;47555;51.038;6.280;2023-02-08T05:37:53;13.77;;;8.88;;
25153;SDS011;47555;51.038;6.280;2023-02-08T05:40:19;15.40;;;8.68;;
25153;SDS011;47555;51.038;6.280;2023-02-08T05:42:45;15.73;;;8.93;;
25153;SDS011;47555;51.038;6.280;2023-02-08T05:45:11;13.80;;;8.75;;
25153;SDS011;47555;51.038;6.280;2023-02-08T05:47:37;15.07;;;8.05;;
25153;SDS011;47555;51.038;6.280;2023-02-08T05:50:02;13.75;;;8.30;;
25153;SDS011;47555;51.038;6.280;2023-02-08T05:52:28;14.30;;;8.35;;
25153;SDS011;47555;51.038;6.280;2023-02-08T05:54:54;17.83;;;7.55;;
25153;SDS011;47555;51.038;6.280;2023-02-08T05:57:19;12.68;;;8.52;;
25153;SDS011;47555;51.038;6.280;2023-02-08T05:59:45;15.18;;;8.80;;
25153;SDS011;47555;51.038;6.280;2023-02-08T06:02:10;14.80;;;8.13;;
25153;SDS011;47555;51.038;6.280;2023-02-08T06:04:36;14.95;;;8.30;;
25153;SDS011;47555;51.038;6.280;2023-02-08T06:07:01;12.07;;;7.47;;
25153;SDS011;47555;51.038;6.280;2023-02-08T06:09:27;18.23;;;8.15;;
25153;SDS011;47555;51.038;6.280;2023-02-08T06:11:52;14.10;;;7.68;;
25153;SDS011;47555;51.038;6.280;2023-02-08T06:14:18;14.95;;;8.80;;
25153;SDS011;47555;51.038;6.280;2023-02-08T06:16:44;15.50;;;8.02;;
25153;SDS011;47555;51.038;6.280;2023-02-08T06:19:09;13.93;;;8.57;;
25153;SDS011;47555;51.038;6.280;2023-02-08T06:21:35;15.23;;;7.68;;
25153;SDS011;47555;51.038;6.280;2023-02-08T06:24:00;13.07;;;7.75;;
25153;SDS011;47555;51.038;6.280;2023-02-08T06:26:27;17.15;;;8.15;;
25153;SDS011;47555;51.038;6.280;2023-02-08T06:28:53;13.32;;;7.75;;
25153;SDS011;47555;51.038;6.280;2023-02-08T06:31:18;19.20;;;8.63;;
25153;SDS011;47555;51.038;6.280;2023-02-08T06:33:44;14.25;;;8.05;;
25153;SDS011;47555;51.038;6.280;2023-02-08T06:36:09;16.17;;;7.78;;
25153;SDS011;47555;51.038;6.280;2023-02-08T06:38:35;14.27;;;8.55;;
25153;SDS011;47555;51.038;6.280;2023-02-08T06:41:00;13.93;;;8.10;;
25153;SDS011;47555;51.038;6.280;2023-02-08T06:43:26;11.93;;;7.57;;
25153;SDS011;47555;51.038;6.280;2023-02-08T06:45:51;15.38;;;7.53;;
25153;SDS011;47555;51.038;6.280;2023-02-08T06:48:17;14.98;;;7.68;;
25153;SDS011;47555;51.038;6.280;2023-02-08T06:50:42;16.60;;;8.40;;
25153;SDS011;47555;51.038;6.280;2023-02-08T06:53:08;16.63;;;8.40;;
25153;SDS011;47555;51.038;6.280;2023-02-08T06:55:33;12.95;;;7.88;;
25153;SDS011;47555;51.038;6.280;2023-02-08T06:57:59;16.48;;;8.70;;
25153;SDS011;47555;51.038;6.280;2023-02-08T07:00:25;14.65;;;8.13;;
25153;SDS011;47555;51.038;6.280;2023-02-08T07:02:50;16.80;;;8.10;;
25153;SDS011;47555;51.038;6.280;2023-02-08T07:05:16;14.73;;;7.50;;
25153;SDS011;47555;51.038;6.280;2023-02-08T07:07:42;15.20;;;8.32;;
25153;SDS011;47555;51.038;6.280;2023-02-08T07:10:08;14.40;;;8.25;;
25153;SDS011;47555;51.038;6.280;2023-02-08T07:12:34;15.93;;;8.30;;
25153;SDS011;47555;51.038;6.280;2023-02-08T07:15:00;20.10;;;8.32;;
25153;SDS011;47555;51.038;6.280;2023-02-08T07:17:26;15.45;;;8.50;;
25153;SDS011;47555;51.038;6.280;2023-02-08T07:19:52;16.05;;;8.52;;
25153;SDS011;47555;51.038;6.280;2023-02-08T07:22:17;15.27;;;7.65;;
25153;SDS011;47555;51.038;6.280;2023-02-08T07:24:43;14.38;;;8.23;;
25153;SDS011;47555;51.038;6.280;2023-02-08T07:27:09;15.45;;;8.02;;
25153;SDS011;47555;51.038;6.280;2023-02-08T07:29:36;16.05;;;8.10;;
25153;SDS011;47555;51.038;6.280;2023-02-08T07:32:03;12.73;;;7.22;;
25153;SDS011;47555;51.038;6.280;2023-02-08T07:34:30;14.43;;;8.43;;
25153;SDS011;47555;51.038;6.280;2023-02-08T07:36:57;15.98;;;7.82;;
25153;SDS011;47555;51.038;6.280;2023-02-08T07:39:23;13.88;;;8.32;;
25153;SDS011;47555;51.038;6.280;2023-02-08T07:41:49;13.85;;;8.25;;
25153;SDS011;47555;51.038;6.280;2023-02-08T07:44:15;13.55;;;7.78;;
25153;SDS011;47555;51.038;6.280;2023-02-08T07:46:40;16.90;;;8.10;;
25153;SDS011;47555;51.038;6.280;2023-02-08T07:49:06;14.65;;;7.70;;
25153;SDS011;47555;51.038;6.280;2023-02-08T07:51:31;15.40;;;8.10;;
25153;SDS011;47555;51.038;6.280;2023-02-08T07:53:57;13.93;;;8.23;;
25153;SDS011;47555;51.038;6.280;2023-02-08T07:56:23;14.07;;;7.78;;
25153;SDS011;47555;51.038;6.280;2023-02-08T07:58:48;15.20;;;8.80;;
25153;SDS011;47555;51.038;6.280;2023-02-08T08:01:14;12.20;;;7.40;;
25153;SDS011;47555;51.038;6.280;2023-02-08T08:03:39;14.90;;;7.80;;
25153;SDS011;47555;51.038;6.280;2023-02-08T08:06:05;11.95;;;7.05;;
25153;SDS011;47555;51.038;6.280;2023-02-08T08:08:30;14.80;;;7.90;;
25153;SDS011;47555;51.038;6.280;2023-02-08T08:10:56;13.43;;;8.10;;
25153;SDS011;47555;51.038;6.280;2023-02-08T08:13:22;16.58;;;7.03;;
25153;SDS011;47555;51.038;6.280;2023-02-08T08:15:47;12.57;;;7.32;;
25153;SDS011;47555;51.038;6.280;2023-02-08T08:18:13;14.10;;;7.05;;
25153;SDS011;47555;51.038;6.280;2023-02-08T08:20:39;15.15;;;7.80;;
25153;SDS011;47555;51.038;6.280;2023-02-08T08:23:04;13.38;;;7.47;;
25153;SDS011;47555;51.038;6.280;2023-02-08T08:25:30;13.13;;;7.30;;
25153;SDS011;47555;51.038;6.280;2023-02-08T08:27:56;11.32;;;6.90;;
25153;SDS011;47555;51.038;6.280;2023-02-08T08:30:21;13.00;;;7.70;;
25153;SDS011;47555;51.038;6.280;2023-02-08T08:32:47;12.18;;;7.28;;
25153;SDS011;47555;51.038;6.280;2023-02-08T08:35:13;11.63;;;8.20;;
25153;SDS011;47555;51.038;6.280;2023-02-08T08:37:38;14.93;;;7.63;;
25153;SDS011;47555;51.038;6.280;2023-02-08T08:40:04;13.55;;;7.63;;
25153;SDS011;47555;51.038;6.280;2023-02-08T08:42:32;12.38;;;6.75;;
25153;SDS011;47555;51.038;6.280;2023-02-08T08:45:00;16.10;;;7.85;;
25153;SDS011;47555;51.038;6.280;2023-02-08T08:47:29;12.82;;;7.03;;
25153;SDS011;47555;51.038;6.280;2023-02-08T08:49:55;13.32;;;7.18;;
25153;SDS011;47555;51.038;6.280;2023-02-08T08:52:21;17.85;;;8.35;;
25153;SDS011;47555;51.038;6.280;2023-02-08T08:54:46;11.88;;;6.75;;
25153;SDS011;47555;51.038;6.280;2023-02-08T08:57:11;13.82;;;7.05;;
25153;SDS011;47555;51.038;6.280;2023-02-08T08:59:37;14.57;;;6.65;;
25153;SDS011;47555;51.038;6.280;2023-02-08T09:02:02;12.88;;;7.47;;
25153;SDS011;47555;51.038;6.280;2023-02-08T09:04:28;14.20;;;7.43;;
25153;SDS011;47555;51.038;6.280;2023-02-08T09:06:54;13.02;;;7.65;;
25153;SDS011;47555;51.038;6.280;2023-02-08T09:09:20;9.85;;;6.50;;
25153;SDS011;47555;51.038;6.280;2023-02-08T09:11:46;16.27;;;8.27;;
25153;SDS011;47555;51.038;6.280;2023-02-08T09:14:12;14.55;;;7.40;;
25153;SDS011;47555;51.038;6.280;2023-02-08T09:16:41;12.25;;;7.32;;
25153;SDS011;47555;51.038;6.280;2023-02-08T09:19:11;12.70;;;7.18;;
25153;SDS011;47555;51.038;6.280;2023-02-08T09:21:38;10.40;;;6.85;;
25153;SDS011;47555;51.038;6.280;2023-02-08T09:24:04;12.75;;;6.63;;
25153;SDS011;47555;51.038;6.280;2023-02-08T09:26:30;10.60;;;7.03;;
25153;SDS011;47555;51.038;6.280;2023-02-08T09:28:55;16.50;;;8.00;;
25153;SDS011;47555;51.038;6.280;2023-02-08T09:31:22;11.13;;;6.55;;
25153;SDS011;47555;51.038;6.280;2023-02-08T09:33:50;11.40;;;7.05;;
25153;SDS011;47555;51.038;6.280;2023-02-08T09:36:17;12.23;;;6.63;;
25153;SDS011;47555;51.038;6.280;2023-02-08T09:38:44;13.00;;;6.72;;
25153;SDS011;47555;51.038;6.280;2023-02-08T09:41:18;14.75;;;7.35;;
25153;SDS011;47555;51.038;6.280;2023-02-08T09:44:19;14.10;;;7.18;;
25153;SDS011;47555;51.038;6.280;2023-02-08T09:46:57;13.50;;;7.07;;
25153;SDS011;47555;51.038;6.280;2023-02-08T09:49:30;11.85;;;6.30;;
25153;SDS011;47555;51.038;6.280;2023-02-08T09:52:07;12.50;;;6.45;;
25153;SDS011;47555;51.038;6.280;2023-02-08T09:54:42;12.65;;;6.53;;
25153;SDS011;47555;51.038;6.280;2023-02-08T09:57:21;14.57;;;6.38;;
25153;SDS011;47555;51.038;6.280;2023-02-08T10:00:11;12.90;;;6.80;;
25153;SDS011;47555;51.038;6.280;2023-02-08T10:02:40;12.38;;;6.80;;
25153;SDS011;47555;51.038;6.280;2023-02-08T10:05:11;10.55;;;6.75;;
25153;SDS011;47555;51.038;6.280;2023-02-08T10:07:43;16.75;;;7.00;;
25153;SDS011;47555;51.038;6.280;2023-02-08T10:10:17;13.90;;;7.65;;
25153;SDS011;47555;51.038;6.280;2023-02-08T10:18:59;9.57;;;5.80;;
25153;SDS011;47555;51.038;6.280;2023-02-08T10:22:29;13.30;;;6.85;;
25153;SDS011;47555;51.038;6.280;2023-02-08T10:25:03;12.32;;;7.00;;
25153;SDS011;47555;51.038;6.280;2023-02-08T10:30:31;11.60;;;5.90;;
25153;SDS011;47555;51.038;6.280;2023-02-08T10:36:01;12.45;;;6.53;;
25153;SDS011;47555;51.038;6.280;2023-02-08T10:38:36;11.68;;;6.30;;
25153;SDS011;47555;51.038;6.280;2023-02-08T10:41:03;10.98;;;6.00;;
25153;SDS011;47555;51.038;6.280;2023-02-08T10:51:32;11.57;;;6.40;;
25153;SDS011;47555;51.038;6.280;2023-02-08T10:53:58;12.05;;;6.90;;
25153;SDS011;47555;51.038;6.280;2023-02-08T10:59:13;13.25;;;6.32;;
25153;SDS011;47555;51.038;6.280;2023-02-08T11:01:42;12.20;;;6.40;;
25153;SDS011;47555;51.038;6.280;2023-02-08T11:04:10;12.23;;;6.38;;
25153;SDS011;47555;51.038;6.280;2023-02-08T11:06:37;9.00;;;6.05;;
25153;SDS011;47555;51.038;6.280;2023-02-08T11:09:04;12.00;;;5.90;;
25153;SDS011;47555;51.038;6.280;2023-02-08T11:11:33;9.00;;;5.93;;
25153;SDS011;47555;51.038;6.280;2023-02-08T11:14:09;11.68;;;5.93;;
25153;SDS011;47555;51.038;6.280;2023-02-08T11:16:40;9.10;;;6.30;;
25153;SDS011;47555;51.038;6.280;2023-02-08T11:19:13;12.30;;;6.43;;
25153;SDS011;47555;51.038;6.280;2023-02-08T11:21:48;12.32;;;6.88;;
25153;SDS011;47555;51.038;6.280;2023-02-08T11:24:24;13.13;;;6.93;;
25153;SDS011;47555;51.038;6.280;2023-02-08T11:26:53;12.50;;;6.65;;
25153;SDS011;47555;51.038;6.280;2023-02-08T11:29:27;11.52;;;7.13;;
25153;SDS011;47555;51.038;6.280;2023-02-08T11:34:24;11.65;;;6.22;;
25153;SDS011;47555;51.038;6.280;2023-02-08T11:36:50;13.18;;;5.68;;
25153;SDS011;47555;51.038;6.280;2023-02-08T11:39:23;10.88;;;6.53;;
25153;SDS011;47555;51.038;6.280;2023-02-08T11:41:54;11.10;;;6.22;;
25153;SDS011;47555;51.038;6.280;2023-02-08T11:44:25;12.05;;;6.40;;
25153;SDS011;47555;51.038;6.280;2023-02-08T11:46:54;11.02;;;6.57;;
25153;SDS011;47555;51.038;6.280;2023-02-08T11:49:23;14.00;;;5.97;;
25153;SDS011;47555;51.038;6.280;2023-02-08T11:51:52;9.65;;;6.38;;
25153;SDS011;47555;51.038;6.280;2023-02-08T11:54:38;8.98;;;5.82;;
25153;SDS011;47555;51.038;6.280;2023-02-08T11:57:24;11.50;;;5.82;;
25153;SDS011;47555;51.038;6.280;2023-02-08T12:00:11;13.43;;;6.40;;
25153;SDS011;47555;51.038;6.280;2023-02-08T12:02:42;11.45;;;6.50;;
25153;SDS011;47555;51.038;6.280;2023-02-08T12:05:14;10.23;;;5.97;;
25153;SDS011;47555;51.038;6.280;2023-02-08T12:08:00;10.77;;;5.45;;
25153;SDS011;47555;51.038;6.280;2023-02-08T12:10:42;8.05;;;5.55;;
25153;SDS011;47555;51.038;6.280;2023-02-08T12:13:33;12.40;;;6.18;;
25153;SDS011;47555;51.038;6.280;2023-02-08T12:24:13;10.48;;;6.00;;
25153;SDS011;47555;51.038;6.280;2023-02-08T12:32:39;10.50;;;6.32;;
25153;SDS011;47555;51.038;6.280;2023-02-08T12:35:31;9.10;;;5.55;;
25153;SDS011;47555;51.038;6.280;2023-02-08T12:38:11;10.15;;;5.65;;
25153;SDS011;47555;51.038;6.280;2023-02-08T12:54:16;8.85;;;4.88;;
25153;SDS011;47555;51.038;6.280;2023-02-08T12:56:53;8.95;;;5.35;;
25153;SDS011;47555;51.038;6.280;2023-02-08T13:00:04;7.32;;;4.88;;
25153;SDS011;47555;51.038;6.280;2023-02-08T13:05:29;9.25;;;4.80;;
25153;SDS011;47555;51.038;6.280;2023-02-08T13:08:08;9.20;;;5.05;;
25153;SDS011;47555;51.038;6.280;2023-02-08T13:10:54;9.00;;;5.00;;
25153;SDS011;47555;51.038;6.280;2023-02-08T13:13:25;8.70;;;4.82;;
25153;SDS011;47555;51.038;6.280;2023-02-08T13:19:53;10.60;;;5.07;;
25153;SDS011;47555;51.038;6.280;2023-02-08T13:22:16;7.97;;;5.05;;
25153;SDS011;47555;51.038;6.280;2023-02-08T13:24:42;9.07;;;4.55;;
25153;SDS011;47555;51.038;6.280;2023-02-08T13:27:14;10.88;;;4.50;;
25153;SDS011;47555;51.038;6.280;2023-02-08T13:29:43;9.77;;;4.43;;
25153;SDS011;47555;51.038;6.280;2023-02-08T13:32:22;8.70;;;4.30;;
25153;SDS011;47555;51.038;6.280;2023-02-08T13:35:34;12.23;;;4.80;;
25153;SDS011;47555;51.038;6.280;2023-02-08T13:38:04;11.07;;;4.80;;
25153;SDS011;47555;51.038;6.280;2023-02-08T13:41:00;6.82;;;4.90;;
25153;SDS011;47555;51.038;6.280;2023-02-08T13:43:32;8.73;;;4.80;;
25153;SDS011;47555;51.038;6.280;2023-02-08T13:46:03;6.90;;;4.55;;
25153;SDS011;47555;51.038;6.280;2023-02-08T13:48:39;8.45;;;4.80;;
25153;SDS011;47555;51.038;6.280;2023-02-08T13:51:25;9.07;;;4.50;;
25153;SDS011;47555;51.038;6.280;2023-02-08T14:04:37;9.75;;;4.05;;
25153;SDS011;47555;51.038;6.280;2023-02-08T14:09:42;6.25;;;4.00;;
25153;SDS011;47555;51.038;6.280;2023-02-08T14:12:29;6.90;;;3.95;;
25153;SDS011;47555;51.038;6.280;2023-02-08T14:15:06;5.63;;;3.60;;
25153;SDS011;47555;51.038;6.280;2023-02-08T14:17:48;7.43;;;4.20;;
25153;SDS011;47555;51.038;6.280;2023-02-08T14:20:29;6.22;;;3.53;;
25153;SDS011;47555;51.038;6.280;2023-02-08T14:22:59;6.05;;;3.42;;
25153;SDS011;47555;51.038;6.280;2023-02-08T14:25:46;4.57;;;3.10;;
25153;SDS011;47555;51.038;6.280;2023-02-08T14:28:22;7.25;;;3.60;;
25153;SDS011;47555;51.038;6.280;2023-02-08T14:30:55;5.30;;;3.30;;
25153;SDS011;47555;51.038;6.280;2023-02-08T14:33:29;5.85;;;3.83;;
25153;SDS011;47555;51.038;6.280;2023-02-08T14:36:00;6.13;;;3.75;;
25153;SDS011;47555;51.038;6.280;2023-02-08T14:44:43;6.75;;;3.30;;
25153;SDS011;47555;51.038;6.280;2023-02-08T14:49:51;5.90;;;3.10;;
25153;SDS011;47555;51.038;6.280;2023-02-08T14:52:32;4.45;;;2.92;;
25153;SDS011;47555;51.038;6.280;2023-02-08T14:54:59;5.18;;;3.13;;
25153;SDS011;47555;51.038;6.280;2023-02-08T14:57:31;5.43;;;3.15;;
25153;SDS011;47555;51.038;6.280;2023-02-08T15:00:32;6.65;;;3.03;;
25153;SDS011;47555;51.038;6.280;2023-02-08T15:02:53;6.97;;;3.55;;
25153;SDS011;47555;51.038;6.280;2023-02-08T15:05:22;6.63;;;3.78;;
25153;SDS011;47555;51.038;6.280;2023-02-08T15:07:56;6.60;;;4.15;;
25153;SDS011;47555;51.038;6.280;2023-02-08T15:10:27;6.05;;;3.50;;
25153;SDS011;47555;51.038;6.280;2023-02-08T15:12:58;6.18;;;4.30;;
25153;SDS011;47555;51.038;6.280;2023-02-08T15:15:40;7.25;;;4.07;;
25153;SDS011;47555;51.038;6.280;2023-02-08T15:18:14;10.45;;;3.50;;
25153;SDS011;47555;51.038;6.280;2023-02-08T15:20:43;7.82;;;3.35;;
25153;SDS011;47555;51.038;6.280;2023-02-08T15:23:19;4.00;;;2.90;;
25153;SDS011;47555;51.038;6.280;2023-02-08T15:25:57;5.72;;;2.85;;
25153;SDS011;47555;51.038;6.280;2023-02-08T15:28:26;5.70;;;3.15;;
25153;SDS011;47555;51.038;6.280;2023-02-08T15:33:30;6.63;;;2.80;;
25153;SDS011;47555;51.038;6.280;2023-02-08T15:36:02;4.38;;;2.97;;
25153;SDS011;47555;51.038;6.280;2023-02-08T15:38:30;5.40;;;3.10;;
25153;SDS011;47555;51.038;6.280;2023-02-08T15:40:59;4.07;;;2.88;;
25153;SDS011;47555;51.038;6.280;2023-02-08T15:43:26;4.65;;;3.03;;
25153;SDS011;47555;51.038;6.280;2023-02-08T15:45:58;7.53;;;3.42;;
25153;SDS011;47555;51.038;6.280;2023-02-08T15:48:25;4.68;;;3.00;;
25153;SDS011;47555;51.038;6.280;2023-02-08T15:50:52;4.30;;;2.88;;
25153;SDS011;47555;51.038;6.280;2023-02-08T15:53:18;5.18;;;3.25;;
25153;SDS011;47555;51.038;6.280;2023-02-08T15:56:00;4.68;;;3.05;;
25153;SDS011;47555;51.038;6.280;2023-02-08T16:01:00;5.82;;;3.35;;
25153;SDS011;47555;51.038;6.280;2023-02-08T16:03:27;4.45;;;3.10;;
25153;SDS011;47555;51.038;6.280;2023-02-08T16:05:55;5.82;;;3.25;;
25153;SDS011;47555;51.038;6.280;2023-02-08T16:08:26;5.45;;;3.78;;
25153;SDS011;47555;51.038;6.280;2023-02-08T16:11:01;5.53;;;3.15;;
25153;SDS011;47555;51.038;6.280;2023-02-08T16:13:33;6.38;;;3.20;;
25153;SDS011;47555;51.038;6.280;2023-02-08T16:16:15;6.63;;;3.15;;
25153;SDS011;47555;51.038;6.280;2023-02-08T16:19:23;7.05;;;3.25;;
25153;SDS011;47555;51.038;6.280;2023-02-08T16:21:55;5.50;;;2.80;;
25153;SDS011;47555;51.038;6.280;2023-02-08T16:24:41;5.40;;;2.97;;
25153;SDS011;47555;51.038;6.280;2023-02-08T16:27:14;4.35;;;3.05;;
25153;SDS011;47555;51.038;6.280;2023-02-08T16:29:50;4.15;;;2.75;;
25153;SDS011;47555;51.038;6.280;2023-02-08T16:34:50;10.40;;;4.30;;
25153;SDS011;47555;51.038;6.280;2023-02-08T16:37:25;7.47;;;3.95;;
25153;SDS011;47555;51.038;6.280;2023-02-08T16:39:59;7.82;;;3.80;;
25153;SDS011;47555;51.038;6.280;2023-02-08T16:42:35;8.10;;;3.42;;
25153;SDS011;47555;51.038;6.280;2023-02-08T16:47:42;8.82;;;5.00;;
25153;SDS011;47555;51.038;6.280;2023-02-08T16:50:14;6.47;;;4.10;;
25153;SDS011;47555;51.038;6.280;2023-02-08T16:52:47;7.05;;;4.38;;
25153;SDS011;47555;51.038;6.280;2023-02-08T16:55:18;9.23;;;4.57;;
25153;SDS011;47555;51.038;6.280;2023-02-08T16:57:51;5.47;;;3.97;;
25153;SDS011;47555;51.038;6.280;2023-02-08T17:02:50;7.53;;;4.35;;
25153;SDS011;47555;51.038;6.280;2023-02-08T17:05:17;9.27;;;4.30;;
25153;SDS011;47555;51.038;6.280;2023-02-08T17:07:44;8.52;;;4.85;;
25153;SDS011;47555;51.038;6.280;2023-02-08T17:10:13;10.02;;;5.25;;